Time;durP1;ratioP1;P1;durP2;ratioP2;P2;SDS_P1;SDS_P2;PMS_P1;PMS_P2;Temp;Humidity;BMP_temperature;BMP_pressure;BME280_temperature;BME280_humidity;BME280_pressure;Samples;Min_cycle;Max_cycle;Signal;HPM_P1;HPM_P2
2023/11/20 00:00:23;;;;;;;3.70;1.67;;;13.30;99.90;;;;;;4952286;29;20024;-52
2023/11/20 00:02:49;;;;;;;4.20;1.88;;;13.30;99.90;;;;;;4952177;29;20092;-52
2023/11/20 00:05:14;;;;;;;8.27;2.17;;;13.30;99.90;;;;;;4983077;28;20031;-52
2023/11/20 00:07:40;;;;;;;4.63;1.70;;;13.30;99.90;;;;;;4984123;28;20042;-52
2023/11/20 00:10:06;;;;;;;7.07;2.00;;;13.30;99.90;;;;;;4983103;28;20035;-52
2023/11/20 00:12:32;;;;;;;4.55;2.17;;;13.30;99.90;;;;;;4982865;28;20055;-52
2023/11/20 00:14:58;;;;;;;8.32;1.83;;;13.30;99.90;;;;;;4982725;28;20435;-52
2023/11/20 00:17:24;;;;;;;4.03;1.83;;;13.30;99.90;;;;;;4982617;28;20027;-51
2023/11/20 00:19:50;;;;;;;8.57;1.80;;;13.30;99.90;;;;;;4982830;28;20035;-52
2023/11/20 00:22:16;;;;;;;4.25;1.80;;;13.30;99.90;;;;;;4982848;28;20024;-52
2023/11/20 00:24:42;;;;;;;7.90;2.15;;;13.20;99.90;;;;;;4951640;29;20055;-52
2023/11/20 00:27:07;;;;;;;7.47;1.50;;;13.20;99.90;;;;;;4982623;28;20114;-52
2023/11/20 00:29:33;;;;;;;3.10;1.55;;;13.20;99.90;;;;;;4951644;29;20114;-52
2023/11/20 00:31:58;;;;;;;4.50;1.75;;;13.20;99.90;;;;;;4951616;29;20039;-52
2023/11/20 00:34:24;;;;;;;4.03;1.40;;;13.20;99.90;;;;;;4951493;29;20032;-52
2023/11/20 00:36:49;;;;;;;6.10;1.65;;;13.20;99.90;;;;;;4951446;29;20055;-52
2023/11/20 00:39:15;;;;;;;4.40;1.83;;;13.20;99.90;;;;;;4981711;28;20119;-52
2023/11/20 00:41:41;;;;;;;6.38;1.60;;;13.20;99.90;;;;;;4966148;29;20083;-52
2023/11/20 00:44:07;;;;;;;6.75;1.70;;;13.10;99.90;;;;;;4982299;28;20552;-52
2023/11/20 00:46:33;;;;;;;5.60;1.65;;;13.10;99.90;;;;;;4982445;28;20162;-52
2023/11/20 00:49:01;;;;;;;6.63;1.50;;;13.10;99.90;;;;;;4982274;28;20062;-52
2023/11/20 00:51:28;;;;;;;3.38;1.20;;;13.10;99.90;;;;;;4981499;28;20043;-52
2023/11/20 00:53:54;;;;;;;6.13;1.55;;;13.10;99.90;;;;;;4981855;28;20047;-52
2023/11/20 00:56:19;;;;;;;5.68;1.40;;;13.10;99.90;;;;;;4982083;28;20059;-52
2023/11/20 00:58:45;;;;;;;5.97;1.33;;;13.10;99.90;;;;;;4982096;28;20480;-52
2023/11/20 01:01:11;;;;;;;5.82;1.50;;;13.10;99.90;;;;;;4981959;28;20024;-52
2023/11/20 01:03:37;;;;;;;2.50;1.20;;;13.10;99.90;;;;;;4951120;29;20032;-52
2023/11/20 01:06:04;;;;;;;5.68;1.40;;;13.10;99.90;;;;;;4981757;28;20072;-52
2023/11/20 01:08:30;;;;;;;3.90;1.27;;;13.10;99.90;;;;;;4951165;29;20038;-52
2023/11/20 01:10:56;;;;;;;6.43;1.90;;;13.10;99.90;;;;;;4981685;28;20169;-52
2023/11/20 01:13:22;;;;;;;5.25;1.25;;;13.00;99.90;;;;;;4981384;28;20035;-52
2023/11/20 01:15:47;;;;;;;6.57;1.73;;;13.00;99.90;;;;;;4981616;28;20086;-52
2023/11/20 01:18:14;;;;;;;3.45;1.17;;;13.10;99.90;;;;;;4950832;29;20099;-52
2023/11/20 01:20:40;;;;;;;3.67;1.08;;;13.00;99.90;;;;;;4981292;28;20039;-52
2023/11/20 01:23:05;;;;;;;4.03;1.50;;;13.00;99.90;;;;;;4965467;29;20031;-52
2023/11/20 01:25:31;;;;;;;3.67;1.40;;;13.00;99.90;;;;;;4981787;28;20035;-52
2023/11/20 01:27:58;;;;;;;1.98;0.95;;;13.00;99.90;;;;;;4981324;28;20122;-52
2023/11/20 01:30:25;;;;;;;5.45;1.33;;;13.00;99.90;;;;;;4981542;28;20051;-52
2023/11/20 01:32:51;;;;;;;3.92;1.30;;;13.00;99.90;;;;;;4981214;28;20087;-52
2023/11/20 01:35:16;;;;;;;2.92;1.30;;;13.00;99.90;;;;;;4981461;28;20042;-52
2023/11/20 01:37:42;;;;;;;2.55;1.10;;;13.00;99.90;;;;;;4964865;29;20038;-52
2023/11/20 01:40:12;;;;;;;5.75;1.60;;;13.00;99.90;;;;;;4981214;28;20055;-52
2023/11/20 01:42:37;;;;;;;2.60;1.17;;;12.90;99.90;;;;;;4965204;29;20032;-52
2023/11/20 01:45:03;;;;;;;4.72;1.33;;;12.90;99.90;;;;;;4981195;28;20095;-52
2023/11/20 01:47:29;;;;;;;1.48;0.75;;;12.90;99.90;;;;;;4948846;28;20062;-52
2023/11/20 01:49:54;;;;;;;4.25;1.48;;;12.90;99.90;;;;;;4980504;28;20084;-52
2023/11/20 01:52:21;;;;;;;2.83;1.15;;;12.90;99.90;;;;;;4980626;28;20075;-52
2023/11/20 01:54:46;;;;;;;3.20;1.35;;;12.90;99.90;;;;;;4964590;29;20035;-52
2023/11/20 01:57:12;;;;;;;4.18;0.90;;;12.90;99.90;;;;;;4981019;28;20111;-52
2023/11/20 01:59:37;;;;;;;2.75;1.33;;;12.90;99.90;;;;;;4981131;28;20467;-52
2023/11/20 02:02:05;;;;;;;3.88;1.48;;;12.90;99.90;;;;;;4980866;28;20028;-52
2023/11/20 02:04:31;;;;;;;3.03;1.23;;;12.90;99.90;;;;;;4980217;28;20087;-52
2023/11/20 02:06:58;;;;;;;2.20;1.00;;;12.90;99.90;;;;;;4980583;28;20027;-52
2023/11/20 02:09:24;;;;;;;3.05;1.27;;;12.90;99.90;;;;;;4948584;29;20043;-52
2023/11/20 02:11:49;;;;;;;2.90;1.20;;;12.90;99.90;;;;;;4949813;29;20058;-52
2023/11/20 02:14:15;;;;;;;4.25;1.20;;;12.90;99.90;;;;;;4980438;28;20039;-52
2023/11/20 02:16:41;;;;;;;3.15;1.25;;;12.90;99.90;;;;;;4980886;28;20031;-52
2023/11/20 02:19:13;;;;;;;5.55;0.90;;;12.80;99.90;;;;;;4951267;29;20095;-52
2023/11/20 02:21:39;;;;;;;2.67;1.00;;;12.80;99.90;;;;;;4980687;28;20031;-52
2023/11/20 02:24:05;;;;;;;3.75;1.10;;;12.80;99.90;;;;;;4980610;28;20530;-52
2023/11/20 02:26:43;;;;;;;2.97;1.20;;;12.80;99.90;;;;;;4980363;28;20031;-52
2023/11/20 02:29:24;;;;;;;2.45;1.17;;;12.90;99.90;;;;;;4980483;28;20039;-52
2023/11/20 02:31:49;;;;;;;3.78;1.10;;;12.80;99.90;;;;;;4949549;29;20046;-52
2023/11/20 02:34:16;;;;;;;2.72;1.00;;;12.80;99.90;;;;;;4949377;29;20061;-52
2023/11/20 02:36:42;;;;;;;3.70;1.20;;;12.80;99.90;;;;;;4949307;29;20026;-52
2023/11/20 02:39:08;;;;;;;2.03;1.00;;;12.80;99.90;;;;;;4980371;28;20036;-52
2023/11/20 02:41:34;;;;;;;2.13;0.90;;;12.70;99.90;;;;;;4963815;29;20026;-52
2023/11/20 02:44:00;;;;;;;4.43;1.08;;;12.80;99.90;;;;;;4980244;28;20472;-52
2023/11/20 02:46:26;;;;;;;3.33;1.05;;;12.70;99.90;;;;;;4963822;29;20059;-52
2023/11/20 02:48:51;;;;;;;2.20;0.93;;;12.70;99.90;;;;;;4980030;28;20039;-52
2023/11/20 02:51:17;;;;;;;1.55;0.98;;;12.70;99.90;;;;;;4949108;29;20095;-52
2023/11/20 02:53:42;;;;;;;2.22;1.10;;;12.70;99.90;;;;;;4980053;28;20040;-52
2023/11/20 02:56:08;;;;;;;2.53;1.20;;;12.70;99.90;;;;;;4949132;29;20039;-52
2023/11/20 02:58:34;;;;;;;1.48;1.00;;;12.70;99.90;;;;;;4979861;28;20020;-52
2023/11/20 03:00:59;;;;;;;3.83;1.13;;;12.70;99.90;;;;;;4949177;29;20164;-52
2023/11/20 03:03:25;;;;;;;2.60;0.90;;;12.70;99.90;;;;;;4948931;29;20028;-52
2023/11/20 03:05:50;;;;;;;1.70;0.80;;;12.70;99.90;;;;;;4979747;28;20031;-52
2023/11/20 03:08:16;;;;;;;1.67;0.75;;;12.70;99.90;;;;;;4948774;29;20036;-52
2023/11/20 03:10:41;;;;;;;3.25;1.00;;;12.70;99.90;;;;;;4949138;29;20051;-51
2023/11/20 03:13:07;;;;;;;2.03;0.98;;;12.60;99.90;;;;;;4979806;28;20032;-52
2023/11/20 03:15:33;;;;;;;4.90;0.95;;;12.60;99.90;;;;;;4948704;29;20027;-52
2023/11/20 03:17:58;;;;;;;1.80;0.93;;;12.60;99.90;;;;;;4948953;29;20605;-52
2023/11/20 03:20:24;;;;;;;2.15;0.85;;;12.60;99.90;;;;;;4979645;28;20056;-52
2023/11/20 03:22:50;;;;;;;1.73;0.90;;;12.60;99.90;;;;;;4962940;29;20043;-52
2023/11/20 03:25:15;;;;;;;2.58;0.88;;;12.60;99.90;;;;;;4979543;28;20036;-52
2023/11/20 03:27:41;;;;;;;2.50;1.10;;;12.60;99.90;;;;;;4947481;29;20031;-52
2023/11/20 03:30:09;;;;;;;2.10;1.10;;;12.60;99.90;;;;;;4948791;29;20040;-52
2023/11/20 03:32:36;;;;;;;8.23;1.20;;;12.60;99.90;;;;;;4979077;28;20040;-52
2023/11/20 03:35:05;;;;;;;2.80;0.90;;;12.60;99.90;;;;;;4948775;29;20036;-52
2023/11/20 03:37:30;;;;;;;2.42;0.90;;;12.60;99.90;;;;;;4948527;29;20032;-52
2023/11/20 03:39:56;;;;;;;1.75;1.10;;;12.60;99.90;;;;;;4948773;29;20042;-52
2023/11/20 03:42:22;;;;;;;4.78;1.15;;;12.60;99.90;;;;;;4979456;28;20023;-52
2023/11/20 03:44:48;;;;;;;2.33;1.00;;;12.60;99.90;;;;;;4979124;28;20038;-52
2023/11/20 03:47:13;;;;;;;1.45;0.90;;;12.60;99.90;;;;;;4948531;29;20032;-52
2023/11/20 03:49:39;;;;;;;2.33;1.10;;;12.60;99.90;;;;;;4963683;28;20036;-52
2023/11/20 03:52:05;;;;;;;3.53;1.05;;;12.50;99.90;;;;;;4979501;28;20027;-52
2023/11/20 03:54:31;;;;;;;3.70;0.90;;;12.50;99.90;;;;;;4948444;29;20059;-52
2023/11/20 03:56:57;;;;;;;3.33;0.90;;;12.50;99.90;;;;;;4979219;28;20123;-52
2023/11/20 03:59:22;;;;;;;0.88;0.60;;;12.60;99.90;;;;;;4947056;29;20078;-52
2023/11/20 04:01:49;;;;;;;0.85;0.60;;;12.50;99.90;;;;;;4948424;29;20035;-52
2023/11/20 04:04:15;;;;;;;1.83;0.80;;;12.50;99.90;;;;;;4978712;28;20028;-52
2023/11/20 04:06:41;;;;;;;1.73;0.90;;;12.50;99.90;;;;;;4962912;29;20028;-52
2023/11/20 04:09:06;;;;;;;1.58;0.70;;;12.50;99.90;;;;;;4948500;29;20114;-52
2023/11/20 04:11:32;;;;;;;1.33;0.80;;;12.50;99.90;;;;;;4948452;29;20472;-52
2023/11/20 04:13:58;;;;;;;1.48;0.77;;;12.50;99.90;;;;;;4980144;28;20070;-52
2023/11/20 04:16:24;;;;;;;1.48;0.82;;;12.50;99.90;;;;;;4951762;29;20027;-52
2023/11/20 04:18:49;;;;;;;1.65;1.00;;;12.40;99.90;;;;;;4951895;29;20059;-52
2023/11/20 04:21:15;;;;;;;3.60;0.90;;;12.40;99.90;;;;;;4982598;28;20020;-52
2023/11/20 04:23:40;;;;;;;2.15;1.00;;;12.50;99.90;;;;;;4952289;29;20377;-52
2023/11/20 04:26:07;;;;;;;2.95;0.82;;;12.50;99.90;;;;;;4952044;29;20024;-52
2023/11/20 04:28:32;;;;;;;1.30;0.73;;;12.50;99.90;;;;;;4982430;28;20044;-52
2023/11/20 04:31:00;;;;;;;1.88;0.80;;;12.40;99.90;;;;;;4951599;29;20436;-52
2023/11/20 04:33:26;;;;;;;2.67;0.98;;;12.40;99.90;;;;;;4982282;28;20031;-52
2023/11/20 04:35:51;;;;;;;1.50;0.85;;;12.40;99.90;;;;;;4951695;29;20035;-52
2023/11/20 04:38:17;;;;;;;2.20;0.80;;;12.40;99.90;;;;;;4982270;28;20028;-52
2023/11/20 04:40:43;;;;;;;1.98;0.88;;;12.40;99.90;;;;;;4982445;28;20024;-52
2023/11/20 04:43:08;;;;;;;2.88;1.10;;;12.40;99.90;;;;;;4982373;28;20499;-52
2023/11/20 04:45:34;;;;;;;1.02;0.65;;;12.40;99.90;;;;;;4951291;29;20526;-52
2023/11/20 04:47:59;;;;;;;6.97;1.75;;;12.40;99.90;;;;;;4982302;28;20058;-52
2023/11/20 04:50:25;;;;;;;4.43;0.68;;;12.40;99.90;;;;;;4982358;28;20060;-52
2023/11/20 04:52:50;;;;;;;2.10;0.93;;;12.40;99.90;;;;;;4951239;29;20032;-52
2023/11/20 04:55:16;;;;;;;1.55;0.80;;;12.40;99.90;;;;;;4982177;28;20052;-52
2023/11/20 04:57:43;;;;;;;1.08;0.80;;;12.40;99.90;;;;;;4982078;28;20094;-52
2023/11/20 05:00:11;;;;;;;2.47;1.00;;;12.40;99.90;;;;;;4981520;28;20019;-52
2023/11/20 05:02:36;;;;;;;2.13;0.90;;;12.40;99.90;;;;;;4981594;28;20031;-52
2023/11/20 05:05:02;;;;;;;2.80;1.10;;;12.40;99.90;;;;;;4951143;29;20028;-51
2023/11/20 05:07:28;;;;;;;1.75;0.73;;;12.40;99.90;;;;;;4965786;28;20120;-52
2023/11/20 05:09:54;;;;;;;1.77;0.60;;;12.40;99.90;;;;;;4981743;28;20028;-52
2023/11/20 05:12:20;;;;;;;2.65;0.80;;;12.40;99.90;;;;;;4950982;29;20051;-52
2023/11/20 05:14:45;;;;;;;1.48;0.90;;;12.40;99.90;;;;;;4981805;28;20385;-52
2023/11/20 05:17:16;;;;;;;2.63;1.00;;;12.30;99.90;;;;;;4981667;28;20038;-52
2023/11/20 05:19:42;;;;;;;1.90;0.80;;;12.40;99.90;;;;;;4980242;28;20027;-52
2023/11/20 05:22:07;;;;;;;2.53;0.70;;;12.40;99.90;;;;;;4981664;28;20042;-52
2023/11/20 05:24:34;;;;;;;0.93;0.65;;;12.30;99.90;;;;;;4981517;28;20480;-52
2023/11/20 05:27:00;;;;;;;1.63;0.88;;;12.30;99.90;;;;;;4950505;29;20115;-52
2023/11/20 05:29:25;;;;;;;0.80;0.55;;;12.30;99.90;;;;;;4981540;28;20055;-52
2023/11/20 05:31:51;;;;;;;1.77;0.77;;;12.30;99.90;;;;;;4981368;28;20031;-52
2023/11/20 05:34:16;;;;;;;1.20;0.60;;;12.30;99.90;;;;;;4948879;29;20039;-52
2023/11/20 05:36:42;;;;;;;1.50;0.90;;;12.30;99.90;;;;;;4950237;29;20042;-52
2023/11/20 05:39:08;;;;;;;2.55;0.70;;;12.30;99.90;;;;;;4950586;29;20036;-52
2023/11/20 05:41:34;;;;;;;1.90;0.80;;;12.30;99.90;;;;;;4981215;28;20058;-52
2023/11/20 05:43:59;;;;;;;2.33;0.80;;;12.30;99.90;;;;;;4981358;28;20459;-52
2023/11/20 05:46:25;;;;;;;1.33;0.57;;;12.30;99.90;;;;;;4950062;29;20051;-52
2023/11/20 05:48:50;;;;;;;2.40;0.70;;;12.30;99.90;;;;;;4981168;28;20032;-52
2023/11/20 05:51:17;;;;;;;4.75;0.80;;;12.30;99.90;;;;;;4980887;28;20460;-52
2023/11/20 05:53:43;;;;;;;2.78;0.88;;;12.30;99.90;;;;;;4964767;29;20051;-52
2023/11/20 05:56:10;;;;;;;3.00;0.88;;;12.30;99.90;;;;;;4950182;29;20034;-52
2023/11/20 05:58:36;;;;;;;1.98;0.90;;;12.30;99.90;;;;;;4980523;28;20036;-52
2023/11/20 06:01:02;;;;;;;1.23;0.80;;;12.30;99.90;;;;;;4980968;28;20020;-52
2023/11/20 06:03:27;;;;;;;2.92;0.90;;;12.30;99.90;;;;;;4980895;28;20035;-52
2023/11/20 06:05:53;;;;;;;1.45;0.88;;;12.30;99.90;;;;;;4949921;29;20071;-52
2023/11/20 06:08:18;;;;;;;1.17;0.70;;;12.30;99.90;;;;;;4980790;28;20031;-52
2023/11/20 06:10:44;;;;;;;1.58;0.70;;;12.30;99.90;;;;;;4980652;28;20060;-52
2023/11/20 06:13:09;;;;;;;1.50;0.70;;;12.20;99.90;;;;;;4948464;29;20484;-52
2023/11/20 06:15:35;;;;;;;1.63;0.73;;;12.20;99.90;;;;;;4949741;29;20056;-52
2023/11/20 06:18:00;;;;;;;1.65;0.80;;;12.20;99.90;;;;;;4980512;28;20078;-52
2023/11/20 06:20:26;;;;;;;1.75;0.80;;;12.20;99.90;;;;;;4980592;28;20031;-52
2023/11/20 06:22:51;;;;;;;1.20;0.90;;;12.20;99.90;;;;;;4980529;28;20096;-52
2023/11/20 06:25:17;;;;;;;3.38;0.82;;;12.20;99.90;;;;;;4950045;29;20028;-52
2023/11/20 06:27:43;;;;;;;1.50;1.00;;;12.20;99.90;;;;;;4981173;28;20032;-52
2023/11/20 06:30:10;;;;;;;2.58;0.82;;;12.20;99.90;;;;;;4980662;28;20436;-52
2023/11/20 06:32:36;;;;;;;1.73;0.95;;;12.20;99.90;;;;;;4979657;28;20035;-52
2023/11/20 06:35:02;;;;;;;3.05;0.75;;;12.20;99.90;;;;;;4962007;29;20027;-52
2023/11/20 06:37:28;;;;;;;2.70;0.80;;;12.20;99.90;;;;;;4967477;28;20039;-52
2023/11/20 06:39:54;;;;;;;3.20;1.13;;;12.20;99.90;;;;;;4983223;28;20027;-52
2023/11/20 06:42:19;;;;;;;2.13;0.85;;;12.20;99.90;;;;;;4969650;28;20114;-52
2023/11/20 06:44:45;;;;;;;1.23;0.80;;;12.20;99.90;;;;;;4949225;29;20051;-52
2023/11/20 06:47:10;;;;;;;1.63;0.70;;;12.20;99.90;;;;;;4958352;29;20035;-52
2023/11/20 06:49:36;;;;;;;1.80;0.85;;;12.20;99.90;;;;;;4983251;28;20035;-52
2023/11/20 06:52:03;;;;;;;1.15;0.60;;;12.20;99.90;;;;;;4983203;28;20090;-52
2023/11/20 06:54:28;;;;;;;2.13;0.93;;;12.20;99.90;;;;;;4967945;28;20066;-52
2023/11/20 06:56:54;;;;;;;2.00;0.70;;;12.20;99.90;;;;;;4982905;28;20023;-52
2023/11/20 06:59:20;;;;;;;2.40;0.80;;;12.20;99.90;;;;;;4982931;28;20087;-52
2023/11/20 07:01:45;;;;;;;1.55;0.60;;;12.20;99.90;;;;;;4981043;28;20028;-52
2023/11/20 07:04:13;;;;;;;2.65;0.80;;;12.20;99.90;;;;;;4983102;28;20028;-52
2023/11/20 07:06:42;;;;;;;1.27;0.73;;;12.20;99.90;;;;;;4982029;28;20031;-52
2023/11/20 07:09:12;;;;;;;2.22;0.90;;;12.20;99.90;;;;;;4965034;28;20060;-52
2023/11/20 07:11:38;;;;;;;2.30;0.88;;;12.20;99.90;;;;;;4979596;28;20031;-52
2023/11/20 07:14:04;;;;;;;2.60;1.10;;;12.20;99.90;;;;;;4964716;28;20046;-52
2023/11/20 07:16:29;;;;;;;2.10;1.00;;;12.20;99.90;;;;;;4971426;28;20057;-52
2023/11/20 07:18:55;;;;;;;1.40;0.88;;;12.20;99.90;;;;;;4985974;28;20022;-52
2023/11/20 07:21:20;;;;;;;5.38;1.10;;;12.20;99.90;;;;;;4967711;28;20031;-52
2023/11/20 07:23:46;;;;;;;6.35;1.05;;;12.20;99.90;;;;;;4974908;28;20110;-52
2023/11/20 07:26:17;;;;;;;5.28;1.05;;;12.20;99.90;;;;;;4977680;28;20039;-52
2023/11/20 07:28:42;;;;;;;3.88;0.85;;;12.20;99.90;;;;;;4947572;29;20046;-52
2023/11/20 07:31:08;;;;;;;3.67;1.15;;;12.20;99.90;;;;;;4966157;29;20031;-52
2023/11/20 07:33:34;;;;;;;7.78;0.95;;;12.20;99.90;;;;;;4966486;28;20043;-51
2023/11/20 07:35:59;;;;;;;8.25;1.05;;;12.20;99.90;;;;;;4978921;28;20499;-52
2023/11/20 07:38:25;;;;;;;2.55;1.13;;;12.20;99.90;;;;;;4955768;29;20032;-52
2023/11/20 07:40:51;;;;;;;8.82;1.10;;;12.20;99.90;;;;;;4948945;29;20043;-52
2023/11/20 07:43:17;;;;;;;9.45;2.10;;;12.30;99.90;;;;;;4966154;28;20035;-52
2023/11/20 07:45:42;;;;;;;20.58;3.00;;;12.30;99.90;;;;;;4981853;28;20098;-52
2023/11/20 07:48:09;;;;;;;25.98;2.78;;;12.30;99.90;;;;;;4976849;28;20035;-52
2023/11/20 07:50:35;;;;;;;38.53;2.75;;;12.30;99.90;;;;;;4963713;28;20066;-52
2023/11/20 07:53:00;;;;;;;15.43;2.85;;;12.30;99.90;;;;;;4980473;28;20035;-52
2023/11/20 07:55:26;;;;;;;20.00;2.60;;;12.30;99.90;;;;;;4966741;28;20034;-52
2023/11/20 07:57:51;;;;;;;51.28;5.88;;;12.30;99.90;;;;;;4982909;28;20479;-52
2023/11/20 08:00:18;;;;;;;48.38;5.30;;;12.30;99.90;;;;;;4982924;28;20057;-52
2023/11/20 08:02:44;;;;;;;35.22;4.78;;;12.30;99.90;;;;;;4967864;28;20019;-52
2023/11/20 08:05:10;;;;;;;30.17;3.63;;;12.30;99.90;;;;;;4981901;28;20041;-51
2023/11/20 08:07:35;;;;;;;31.45;4.65;;;12.30;99.90;;;;;;4981609;28;20035;-52
2023/11/20 08:10:03;;;;;;;48.72;3.97;;;12.40;99.90;;;;;;4964067;29;20035;-52
2023/11/20 08:12:29;;;;;;;37.22;3.85;;;12.40;99.90;;;;;;4966811;29;20035;-52
2023/11/20 08:14:54;;;;;;;51.30;4.40;;;12.40;99.90;;;;;;4982558;28;20027;-52
2023/11/20 08:17:20;;;;;;;32.67;3.65;;;12.40;99.90;;;;;;4981770;28;20055;-52
2023/11/20 08:19:46;;;;;;;40.88;4.05;;;12.40;99.90;;;;;;4964096;29;20035;-52
2023/11/20 08:22:11;;;;;;;46.38;4.80;;;12.40;99.90;;;;;;4964623;28;20024;-52
2023/11/20 08:24:38;;;;;;;39.35;4.82;;;12.40;99.90;;;;;;4982140;28;20566;-52
2023/11/20 08:27:04;;;;;;;64.30;5.68;;;12.40;99.90;;;;;;4949255;29;20537;-53
2023/11/20 08:29:32;;;;;;;76.50;8.93;;;12.50;99.90;;;;;;4983189;28;20039;-52
2023/11/20 08:31:59;;;;;;;79.68;7.72;;;12.50;99.90;;;;;;4966446;29;20033;-52
2023/11/20 08:34:26;;;;;;;72.43;7.63;;;12.50;99.90;;;;;;4979196;28;20050;-52
2023/11/20 08:36:51;;;;;;;130.60;11.10;;;12.50;99.90;;;;;;4964489;29;20027;-52
2023/11/20 08:39:19;;;;;;;94.78;9.35;;;12.60;99.90;;;;;;4967700;29;20034;-52
2023/11/20 08:41:44;;;;;;;104.38;10.20;;;12.60;99.90;;;;;;4966792;28;20110;-52
2023/11/20 08:44:11;;;;;;;101.55;10.07;;;12.60;99.90;;;;;;4965792;29;20463;-52
2023/11/20 08:46:36;;;;;;;130.93;11.00;;;12.60;99.90;;;;;;4965908;28;20035;-52
2023/11/20 08:49:02;;;;;;;82.88;8.80;;;12.60;99.90;;;;;;4981009;28;20027;-52
2023/11/20 08:51:29;;;;;;;115.75;10.35;;;12.70;99.90;;;;;;4979937;28;20027;-52
2023/11/20 08:53:54;;;;;;;87.05;9.88;;;12.70;99.90;;;;;;4966828;28;20043;-52
2023/11/20 08:56:20;;;;;;;131.77;11.85;;;12.70;99.90;;;;;;4964844;28;20031;-52
2023/11/20 08:58:45;;;;;;;70.15;9.73;;;12.70;99.90;;;;;;4981096;28;20032;-52
2023/11/20 09:01:12;;;;;;;82.45;9.07;;;12.70;99.90;;;;;;4979438;28;20106;-51
2023/11/20 09:03:38;;;;;;;99.90;11.73;;;12.80;99.90;;;;;;4977872;28;20063;-52
2023/11/20 09:06:04;;;;;;;125.90;12.20;;;12.70;99.90;;;;;;4979790;28;20031;-52
2023/11/20 09:08:29;;;;;;;114.78;11.90;;;12.80;99.90;;;;;;4976031;28;20035;-52
2023/11/20 09:10:55;;;;;;;111.03;11.57;;;12.80;99.90;;;;;;4967773;28;20035;-52
2023/11/20 09:13:20;;;;;;;91.97;10.85;;;12.80;99.90;;;;;;4962548;29;20031;-52
2023/11/20 09:15:46;;;;;;;115.43;12.93;;;12.80;99.90;;;;;;4965022;28;20030;-52
2023/11/20 09:18:12;;;;;;;153.05;15.05;;;12.80;99.90;;;;;;4966921;28;20023;-52
2023/11/20 09:20:38;;;;;;;106.00;11.50;;;12.90;99.90;;;;;;4981572;28;20040;-52
2023/11/20 09:23:04;;;;;;;142.57;13.27;;;12.90;99.90;;;;;;4962841;29;20736;-52
2023/11/20 09:25:29;;;;;;;121.97;14.07;;;12.90;99.90;;;;;;4979258;28;20042;-52
2023/11/20 09:27:56;;;;;;;113.28;12.50;;;13.00;99.90;;;;;;4982425;28;20034;-52
2023/11/20 09:30:22;;;;;;;113.63;12.93;;;13.00;99.90;;;;;;4957670;28;20035;-52
2023/11/20 09:32:47;;;;;;;143.43;14.50;;;13.00;99.90;;;;;;4963030;28;20031;-52
2023/11/20 09:35:15;;;;;;;138.05;14.75;;;13.00;99.90;;;;;;4980008;28;20106;-52
2023/11/20 09:37:42;;;;;;;138.82;15.40;;;13.00;99.90;;;;;;4964865;28;20392;-52
2023/11/20 09:40:08;;;;;;;140.50;13.27;;;13.10;99.90;;;;;;4981952;28;20035;-52
2023/11/20 09:42:34;;;;;;;117.55;12.82;;;13.10;99.90;;;;;;4962796;29;20038;-52
2023/11/20 09:45:00;;;;;;;117.57;13.65;;;13.10;99.90;;;;;;4958214;29;20551;-52
2023/11/20 09:47:27;;;;;;;98.10;11.32;;;13.10;99.90;;;;;;4980349;28;20027;-52
2023/11/20 09:49:55;;;;;;;88.50;9.95;;;13.10;99.90;;;;;;4948392;29;20035;-52
2023/11/20 09:52:20;;;;;;;72.25;9.68;;;13.10;99.90;;;;;;4981837;28;20035;-52
2023/11/20 09:54:46;;;;;;;76.63;9.73;;;13.10;99.90;;;;;;4978591;28;20046;-52
2023/11/20 09:57:14;;;;;;;87.07;10.73;;;13.10;99.90;;;;;;4981405;28;20020;-52
2023/11/20 09:59:39;;;;;;;103.20;10.20;;;13.10;99.90;;;;;;4980142;28;20616;-52
2023/11/20 10:02:05;;;;;;;110.47;10.43;;;13.20;99.90;;;;;;4965804;29;20035;-52
2023/11/20 10:04:32;;;;;;;81.22;10.32;;;13.10;99.90;;;;;;4982086;28;20035;-52
2023/11/20 10:06:58;;;;;;;97.35;10.52;;;13.10;99.90;;;;;;4983230;28;20082;-52
2023/11/20 10:09:24;;;;;;;98.72;10.18;;;13.20;99.90;;;;;;4982997;28;20500;-52
2023/11/20 10:11:52;;;;;;;75.28;10.63;;;13.20;99.90;;;;;;4982142;28;20031;-52
2023/11/20 10:14:19;;;;;;;68.30;8.82;;;13.20;99.90;;;;;;4967156;29;20035;-52
2023/11/20 10:16:52;;;;;;;83.50;9.10;;;13.20;99.90;;;;;;4967146;29;20019;-52
2023/11/20 10:19:18;;;;;;;87.53;8.75;;;13.30;99.90;;;;;;4979394;28;20051;-52
2023/11/20 10:21:44;;;;;;;65.50;8.00;;;13.30;99.90;;;;;;4986581;28;20380;-52
2023/11/20 10:24:16;;;;;;;80.47;7.53;;;13.30;99.90;;;;;;4960529;28;20104;-52
2023/11/20 10:26:42;;;;;;;78.30;8.50;;;13.30;99.90;;;;;;4966103;28;20117;-52
2023/11/20 10:29:10;;;;;;;61.28;7.40;;;13.40;99.90;;;;;;4980986;28;20038;-52
2023/11/20 10:31:45;;;;;;;65.63;8.27;;;13.40;99.90;;;;;;4975624;28;20046;-52
2023/11/20 10:34:11;;;;;;;80.85;8.80;;;13.40;99.90;;;;;;4983274;28;20091;-52
2023/11/20 10:36:37;;;;;;;68.25;8.32;;;13.50;99.90;;;;;;4966829;29;20039;-52
2023/11/20 10:39:03;;;;;;;71.05;8.18;;;13.50;99.90;;;;;;4956118;29;20045;-52
2023/11/20 10:41:29;;;;;;;68.35;8.48;;;13.50;99.90;;;;;;4963617;29;20039;-52
2023/11/20 10:43:57;;;;;;;60.65;7.32;;;13.50;99.90;;;;;;4964231;29;20039;-53
2023/11/20 10:46:26;;;;;;;72.78;8.68;;;13.50;99.90;;;;;;4968052;29;20031;-52
2023/11/20 10:48:52;;;;;;;120.93;12.43;;;13.50;99.90;;;;;;4950745;29;20038;-52
2023/11/20 10:51:19;;;;;;;127.63;13.18;;;13.60;99.90;;;;;;4974345;28;20035;-52
2023/11/20 10:53:51;;;;;;;85.50;11.10;;;13.60;99.90;;;;;;4976518;28;20035;-52
2023/11/20 10:56:16;;;;;;;77.35;8.70;;;13.60;99.90;;;;;;4966829;28;20051;-52
2023/11/20 10:58:43;;;;;;;109.25;11.95;;;13.60;99.90;;;;;;4963527;29;20404;-52
2023/11/20 11:01:09;;;;;;;84.68;10.00;;;13.60;99.90;;;;;;4967592;28;20701;-52
2023/11/20 11:03:36;;;;;;;49.05;7.28;;;13.60;99.90;;;;;;4967741;28;20027;-52
2023/11/20 11:06:04;;;;;;;76.85;9.00;;;13.60;99.70;;;;;;4948987;28;20059;-52
2023/11/20 11:08:32;;;;;;;97.25;12.93;;;13.60;99.70;;;;;;4969246;28;20031;-52
2023/11/20 11:10:58;;;;;;;105.05;11.80;;;13.60;99.90;;;;;;4981249;28;20554;-52
2023/11/20 11:13:24;;;;;;;146.02;15.70;;;13.70;99.90;;;;;;4981730;28;20035;-52
2023/11/20 11:15:50;;;;;;;113.43;13.20;;;13.70;99.90;;;;;;4941685;29;20038;-52
2023/11/20 11:18:16;;;;;;;148.13;16.33;;;13.80;99.90;;;;;;4980506;28;20087;-52
2023/11/20 11:20:53;;;;;;;134.73;14.65;;;13.80;99.90;;;;;;4982567;28;20032;-52
2023/11/20 11:23:29;;;;;;;94.40;11.65;;;13.80;99.80;;;;;;4981959;28;20027;-52
2023/11/20 11:26:16;;;;;;;103.38;11.30;;;13.90;99.80;;;;;;4967313;28;20119;-52
2023/11/20 11:28:44;;;;;;;140.25;13.20;;;13.90;99.40;;;;;;4977779;28;20031;-52
2023/11/20 11:31:10;;;;;;;113.65;11.85;;;13.90;99.00;;;;;;4980586;28;20031;-52
2023/11/20 11:34:15;;;;;;;157.55;12.88;;;13.90;99.00;;;;;;4976756;28;20088;-52
2023/11/20 11:36:58;;;;;;;112.68;12.38;;;13.90;99.20;;;;;;4980634;28;20035;-52
2023/11/20 11:39:35;;;;;;;105.07;11.52;;;13.90;99.00;;;;;;4951391;29;20036;-52
2023/11/20 11:42:15;;;;;;;94.88;10.80;;;14.00;99.10;;;;;;4980838;28;20105;-52
2023/11/20 11:45:03;;;;;;;80.57;8.85;;;14.00;99.00;;;;;;4962219;28;20042;-51
2023/11/20 11:47:29;;;;;;;97.57;9.00;;;14.00;98.80;;;;;;4963011;29;20046;-52
2023/11/20 11:49:56;;;;;;;132.43;15.68;;;14.00;98.50;;;;;;4983214;28;20046;-52
2023/11/20 11:52:31;;;;;;;139.63;13.52;;;14.00;98.70;;;;;;4965516;28;20163;-52
2023/11/20 11:55:21;;;;;;;106.03;12.63;;;14.00;98.70;;;;;;4981067;28;20102;-52
2023/11/20 11:58:16;;;;;;;94.20;11.75;;;14.10;98.70;;;;;;4965671;29;20031;-52
2023/11/20 12:00:42;;;;;;;94.50;11.15;;;14.10;98.50;;;;;;4975261;28;20035;-52
2023/11/20 12:03:16;;;;;;;79.70;9.32;;;14.10;98.50;;;;;;4950796;29;20030;-52
2023/11/20 12:05:54;;;;;;;121.75;12.23;;;14.10;98.10;;;;;;4966700;28;20040;-52
2023/11/20 12:08:22;;;;;;;100.68;11.82;;;14.10;97.90;;;;;;4964796;28;20039;-52
2023/11/20 12:10:57;;;;;;;110.05;11.70;;;14.10;98.00;;;;;;4963517;29;20043;-52
2023/11/20 12:13:23;;;;;;;;;;;14.10;98.10;;;;;;4980629;28;20035;-52
2023/11/20 12:15:53;;;;;;;164.00;14.07;;;14.10;97.80;;;;;;4964022;28;19974;-52
2023/11/20 12:18:23;;;;;;;124.85;13.40;;;14.20;97.70;;;;;;4980534;28;20118;-52
2023/11/20 12:20:55;;;;;;;175.73;16.70;;;14.20;97.50;;;;;;4975669;28;20032;-52
2023/11/20 12:23:24;;;;;;;135.20;13.32;;;14.10;97.20;;;;;;4966417;28;20128;-52
2023/11/20 12:25:49;;;;;;;107.32;11.30;;;14.10;97.00;;;;;;4961260;28;20043;-52
2023/11/20 12:28:15;;;;;;;143.88;14.48;;;14.20;97.00;;;;;;4979429;28;20083;-52
2023/11/20 12:30:41;;;;;;;106.60;11.20;;;14.20;96.90;;;;;;4969592;28;20046;-52
2023/11/20 12:33:10;;;;;;;108.90;10.40;;;14.20;96.70;;;;;;4965703;29;20038;-52
2023/11/20 12:35:36;;;;;;;178.77;16.38;;;14.20;96.60;;;;;;4982053;28;20098;-52